Time;durP1;ratioP1;P1;durP2;ratioP2;P2;SDS_P1;SDS_P2;PMS_P1;PMS_P2;Temp;Humidity;BMP_temperature;BMP_pressure;BME280_temperature;BME280_humidity;BME280_pressure;Samples;Min_cycle;Max_cycle;Signal;HPM_P1;HPM_P2
2022/03/14 00:02:20;;;;;;;3.60;3.30;;;;;;;;;;5062514;28;20029;-65
2022/03/14 00:04:48;;;;;;;4.47;3.92;;;;;;;;;;5062918;28;20059;-65
2022/03/14 00:07:14;;;;;;;3.83;3.42;;;;;;;;;;5060484;28;20101;-65
2022/03/14 00:09:39;;;;;;;4.25;3.85;;;;;;;;;;5062148;28;20458;-65
2022/03/14 00:12:08;;;;;;;4.20;3.80;;;;;;;;;;5062660;28;20104;-65
2022/03/14 00:14:33;;;;;;;3.58;3.28;;;;;;;;;;5061141;28;20075;-65
2022/03/14 00:17:02;;;;;;;5.13;3.95;;;;;;;;;;5062890;28;20468;-65
2022/03/14 00:19:29;;;;;;;4.38;3.95;;;;;;;;;;5061769;28;20028;-66
2022/03/14 00:21:54;;;;;;;4.70;3.70;;;;;;;;;;5062830;28;20036;-66
2022/03/14 00:24:20;;;;;;;4.63;4.13;;;;;;;;;;5059102;28;20031;-64
2022/03/14 00:26:46;;;;;;;4.57;3.72;;;;;;;;;;5044787;28;20089;-65
2022/03/14 00:29:11;;;;;;;5.32;4.00;;;;;;;;;;5060464;28;20028;-66
2022/03/14 00:31:36;;;;;;;4.00;3.60;;;;;;;;;;5061084;28;20029;-64
2022/03/14 00:34:02;;;;;;;4.88;3.65;;;;;;;;;;5062670;28;20028;-65
2022/03/14 00:36:27;;;;;;;4.32;3.92;;;;;;;;;;5063103;28;20025;-65
2022/03/14 00:38:53;;;;;;;4.15;3.60;;;;;;;;;;5060029;28;20521;-63
2022/03/14 00:41:18;;;;;;;5.13;3.40;;;;;;;;;;5060891;28;20024;-65
2022/03/14 00:43:44;;;;;;;3.65;3.35;;;;;;;;;;5059896;28;20470;-64
2022/03/14 00:46:10;;;;;;;3.88;3.47;;;;;;;;;;5063818;28;20469;-65
2022/03/14 00:48:36;;;;;;;3.70;3.40;;;;;;;;;;5061992;28;20024;-65
2022/03/14 00:51:02;;;;;;;3.63;3.33;;;;;;;;;;5064800;28;20123;-65
2022/03/14 00:53:27;;;;;;;4.00;3.60;;;;;;;;;;5061137;28;20023;-65
2022/03/14 00:55:52;;;;;;;4.35;3.60;;;;;;;;;;5062443;28;20048;-65
2022/03/14 00:58:17;;;;;;;3.50;3.20;;;;;;;;;;5060088;28;20036;-65
2022/03/14 01:00:43;;;;;;;4.18;3.78;;;;;;;;;;5060485;28;20789;-65
2022/03/14 01:03:08;;;;;;;4.25;3.72;;;;;;;;;;5063926;28;20013;-64
2022/03/14 01:05:34;;;;;;;4.10;3.70;;;;;;;;;;5064616;28;20028;-65
2022/03/14 01:07:59;;;;;;;3.90;3.50;;;;;;;;;;5060804;28;20039;-65
2022/03/14 01:10:25;;;;;;;4.85;4.25;;;;;;;;;;5060971;28;20471;-65
2022/03/14 01:12:51;;;;;;;4.40;4.00;;;;;;;;;;5044864;28;20501;-66
2022/03/14 01:15:18;;;;;;;5.07;4.07;;;;;;;;;;5059878;28;20071;-64
2022/03/14 01:17:43;;;;;;;4.07;3.67;;;;;;;;;;5062581;28;20433;-66
2022/03/14 01:20:10;;;;;;;4.60;4.05;;;;;;;;;;5064869;28;20431;-65
2022/03/14 01:22:36;;;;;;;5.20;4.70;;;;;;;;;;5059792;28;20016;-66
2022/03/14 01:25:02;;;;;;;4.72;4.22;;;;;;;;;;5060932;28;20082;-64
2022/03/14 01:27:27;;;;;;;5.18;4.68;;;;;;;;;;5061502;28;20422;-65
2022/03/14 01:29:53;;;;;;;5.22;4.60;;;;;;;;;;5043963;28;20028;-65
2022/03/14 01:32:18;;;;;;;5.30;4.80;;;;;;;;;;5063643;28;20077;-66
2022/03/14 01:34:43;;;;;;;5.50;5.00;;;;;;;;;;5062776;28;20337;-65
2022/03/14 01:37:10;;;;;;;5.53;4.80;;;;;;;;;;5061575;28;20024;-65
2022/03/14 01:39:36;;;;;;;5.45;4.88;;;;;;;;;;5041797;28;20028;-65
2022/03/14 01:42:02;;;;;;;5.65;5.15;;;;;;;;;;5062704;28;20092;-65
2022/03/14 01:44:27;;;;;;;5.05;4.50;;;;;;;;;;5042650;28;20100;-65
2022/03/14 01:46:55;;;;;;;5.10;4.65;;;;;;;;;;5045384;28;20103;-65
2022/03/14 01:49:20;;;;;;;6.18;5.10;;;;;;;;;;5062397;28;20021;-65
2022/03/14 01:51:46;;;;;;;6.30;5.70;;;;;;;;;;5055341;28;20056;-65
2022/03/14 01:54:11;;;;;;;8.40;5.70;;;;;;;;;;5045144;28;20035;-65
2022/03/14 01:56:38;;;;;;;6.63;6.03;;;;;;;;;;5060092;28;20090;-65
2022/03/14 01:59:03;;;;;;;6.95;6.28;;;;;;;;;;5063369;28;20025;-65
2022/03/14 02:01:31;;;;;;;7.40;6.72;;;;;;;;;;5065623;28;20021;-65
2022/03/14 02:03:56;;;;;;;7.03;6.32;;;;;;;;;;5048576;28;20063;-65
2022/03/14 02:06:21;;;;;;;8.18;6.88;;;;;;;;;;5065929;28;20021;-64
2022/03/14 02:08:46;;;;;;;7.47;6.78;;;;;;;;;;5063068;28;20024;-64
2022/03/14 02:11:12;;;;;;;7.88;6.90;;;;;;;;;;5064000;28;20502;-64
2022/03/14 02:13:37;;;;;;;8.27;6.95;;;;;;;;;;5045662;28;20025;-63
2022/03/14 02:16:02;;;;;;;7.57;6.88;;;;;;;;;;5046964;28;20025;-65
2022/03/14 02:18:28;;;;;;;8.63;7.70;;;;;;;;;;5045531;28;20414;-64
2022/03/14 02:20:54;;;;;;;7.65;6.85;;;;;;;;;;5027147;28;20032;-65
2022/03/14 02:23:19;;;;;;;7.70;7.00;;;;;;;;;;5043809;28;20041;-64
2022/03/14 02:25:51;;;;;;;8.20;7.05;;;;;;;;;;5044154;28;20024;-65
2022/03/14 02:28:22;;;;;;;8.68;7.68;;;;;;;;;;5040571;28;20558;-65
2022/03/14 02:30:48;;;;;;;8.60;7.65;;;;;;;;;;5045038;28;20421;-64
2022/03/14 02:33:13;;;;;;;9.25;7.53;;;;;;;;;;5044833;28;20082;-64
2022/03/14 02:35:42;;;;;;;9.27;8.38;;;;;;;;;;5043397;28;20474;-64
2022/03/14 02:38:09;;;;;;;10.05;9.05;;;;;;;;;;5042406;28;20094;-64
2022/03/14 02:40:35;;;;;;;9.63;8.73;;;;;;;;;;5041001;28;20078;-63
2022/03/14 02:43:00;;;;;;;11.70;10.07;;;;;;;;;;5043869;28;20020;-64
2022/03/14 02:45:26;;;;;;;11.63;10.40;;;;;;;;;;5046373;28;20095;-64
2022/03/14 02:47:51;;;;;;;12.27;10.98;;;;;;;;;;5041708;28;20420;-64
2022/03/14 02:50:16;;;;;;;12.38;11.20;;;;;;;;;;5044587;28;20048;-65
2022/03/14 02:52:42;;;;;;;11.70;10.60;;;;;;;;;;5050468;28;20033;-64
2022/03/14 02:55:07;;;;;;;12.52;11.30;;;;;;;;;;5060829;28;20016;-65
2022/03/14 02:57:33;;;;;;;13.20;11.90;;;;;;;;;;5063195;28;20040;-65
2022/03/14 02:59:58;;;;;;;13.15;11.77;;;;;;;;;;5044957;28;20028;-64
2022/03/14 03:02:25;;;;;;;13.70;12.40;;;;;;;;;;5065109;28;20024;-65
2022/03/14 03:04:51;;;;;;;14.75;13.30;;;;;;;;;;5061619;28;20028;-64
2022/03/14 03:07:18;;;;;;;16.92;15.32;;;;;;;;;;5066118;28;20073;-65
2022/03/14 03:09:44;;;;;;;15.75;14.10;;;;;;;;;;5060964;28;20178;-64
2022/03/14 03:12:12;;;;;;;17.25;15.55;;;;;;;;;;5065786;28;20302;-66
2022/03/14 03:14:37;;;;;;;16.73;15.13;;;;;;;;;;5059771;28;20494;-64
2022/03/14 03:17:03;;;;;;;17.35;15.55;;;;;;;;;;5047367;28;20040;-65
2022/03/14 03:19:28;;;;;;;18.20;16.40;;;;;;;;;;5065753;28;20032;-65
2022/03/14 03:21:54;;;;;;;19.65;17.80;;;;;;;;;;5063118;28;20347;-66
2022/03/14 03:24:20;;;;;;;19.30;17.33;;;;;;;;;;5062312;28;20123;-67
2022/03/14 03:26:45;;;;;;;20.83;18.73;;;;;;;;;;5045844;28;20021;-66
2022/03/14 03:29:10;;;;;;;20.83;18.65;;;;;;;;;;5062060;28;20066;-66
2022/03/14 03:31:36;;;;;;;20.58;18.48;;;;;;;;;;5063533;28;20020;-66
2022/03/14 03:34:02;;;;;;;20.83;18.63;;;;;;;;;;5063448;28;20025;-66
2022/03/14 03:36:27;;;;;;;20.42;18.33;;;;;;;;;;5064684;28;20371;-66
2022/03/14 03:38:52;;;;;;;21.10;18.90;;;;;;;;;;5060520;28;20037;-66
2022/03/14 03:41:18;;;;;;;22.13;19.45;;;;;;;;;;5062608;28;20017;-67
2022/03/14 03:43:43;;;;;;;23.30;19.88;;;;;;;;;;5042420;28;20469;-65
2022/03/14 03:46:08;;;;;;;22.83;19.67;;;;;;;;;;5065366;28;20083;-65
2022/03/14 03:48:34;;;;;;;23.13;19.33;;;;;;;;;;5064501;28;20063;-65
2022/03/14 03:51:00;;;;;;;23.70;20.50;;;;;;;;;;5062898;28;20707;-66
2022/03/14 03:53:25;;;;;;;24.92;18.85;;;;;;;;;;5061373;28;20051;-66
2022/03/14 03:55:50;;;;;;;22.42;16.95;;;;;;;;;;5060442;28;20067;-66
2022/03/14 03:58:16;;;;;;;21.83;17.58;;;;;;;;;;5023946;28;20655;-66
2022/03/14 04:00:41;;;;;;;18.45;14.65;;;;;;;;;;5024293;28;20657;-66
2022/03/14 04:03:07;;;;;;;21.58;14.05;;;;;;;;;;5025501;28;20444;-65
2022/03/14 04:05:33;;;;;;;16.95;13.00;;;;;;;;;;5045798;28;20440;-65
2022/03/14 04:08:02;;;;;;;17.50;12.52;;;;;;;;;;5039830;28;20423;-65
2022/03/14 04:10:29;;;;;;;19.17;11.20;;;;;;;;;;5040839;28;20067;-66
2022/03/14 04:12:58;;;;;;;17.48;12.73;;;;;;;;;;5040063;28;20493;-65
2022/03/14 04:15:24;;;;;;;18.15;10.52;;;;;;;;;;5044073;28;20514;-65
2022/03/14 04:17:50;;;;;;;13.90;8.43;;;;;;;;;;5041238;28;20044;-66
2022/03/14 04:20:15;;;;;;;15.82;9.05;;;;;;;;;;5025696;28;20021;-65
2022/03/14 04:22:41;;;;;;;11.98;7.43;;;;;;;;;;5041300;28;20379;-65
2022/03/14 04:25:09;;;;;;;13.85;7.47;;;;;;;;;;5038303;28;20518;-64
2022/03/14 04:27:34;;;;;;;12.70;6.50;;;;;;;;;;5043353;28;20030;-64
2022/03/14 04:30:00;;;;;;;14.13;6.70;;;;;;;;;;5041570;28;20264;-64
2022/03/14 04:32:26;;;;;;;12.65;6.70;;;;;;;;;;5044054;28;20306;-65
2022/03/14 04:34:51;;;;;;;11.40;6.45;;;;;;;;;;5042038;28;20063;-65
2022/03/14 04:37:16;;;;;;;15.32;6.43;;;;;;;;;;5041250;28;20071;-64
2022/03/14 04:39:42;;;;;;;13.68;6.82;;;;;;;;;;5041874;28;20763;-65
2022/03/14 04:42:08;;;;;;;16.05;6.10;;;;;;;;;;5041308;28;20021;-67
2022/03/14 04:44:34;;;;;;;12.43;5.95;;;;;;;;;;5042621;28;20111;-64
2022/03/14 04:46:59;;;;;;;14.95;6.53;;;;;;;;;;5042808;28;20094;-64
2022/03/14 04:49:25;;;;;;;12.02;5.82;;;;;;;;;;5044168;28;20443;-64
2022/03/14 04:51:51;;;;;;;10.98;5.47;;;;;;;;;;5042684;28;20072;-64
2022/03/14 04:54:17;;;;;;;13.27;5.00;;;;;;;;;;5041575;28;20479;-64
2022/03/14 04:56:42;;;;;;;9.80;4.57;;;;;;;;;;5041424;28;20087;-64
2022/03/14 04:59:07;;;;;;;13.25;5.72;;;;;;;;;;5039929;28;20028;-64
2022/03/14 05:01:33;;;;;;;10.25;4.30;;;;;;;;;;5041925;28;20067;-64
2022/03/14 05:03:58;;;;;;;8.90;4.47;;;;;;;;;;5042573;28;20516;-64
2022/03/14 05:06:24;;;;;;;10.38;4.95;;;;;;;;;;5042636;28;20559;-65
2022/03/14 05:08:49;;;;;;;9.48;4.40;;;;;;;;;;5040776;28;20138;-65
2022/03/14 05:11:15;;;;;;;8.90;3.63;;;;;;;;;;5039693;28;20123;-65
2022/03/14 05:13:41;;;;;;;9.68;3.35;;;;;;;;;;5040299;28;20052;-64
2022/03/14 05:16:06;;;;;;;8.48;3.33;;;;;;;;;;5043206;28;20029;-64
2022/03/14 05:18:32;;;;;;;8.85;3.28;;;;;;;;;;5043920;28;20219;-64
2022/03/14 05:20:57;;;;;;;12.88;3.60;;;;;;;;;;5046080;28;20096;-65
2022/03/14 05:23:24;;;;;;;8.63;3.20;;;;;;;;;;5047358;28;20021;-65
2022/03/14 05:25:50;;;;;;;7.35;3.00;;;;;;;;;;5044070;28;20503;-64
2022/03/14 05:28:15;;;;;;;7.15;3.08;;;;;;;;;;5046732;28;20506;-63
2022/03/14 05:30:41;;;;;;;8.32;3.63;;;;;;;;;;5067447;28;20024;-64
2022/03/14 05:33:06;;;;;;;10.65;3.30;;;;;;;;;;5065310;28;20503;-65
2022/03/14 05:35:31;;;;;;;11.05;4.25;;;;;;;;;;5067014;28;20123;-65
2022/03/14 05:37:57;;;;;;;9.68;4.05;;;;;;;;;;5051748;28;20072;-63
2022/03/14 05:40:22;;;;;;;9.98;4.85;;;;;;;;;;5044193;28;20472;-64
2022/03/14 05:42:49;;;;;;;10.98;6.03;;;;;;;;;;5046387;28;20039;-64
2022/03/14 05:45:15;;;;;;;11.85;6.50;;;;;;;;;;5026920;28;20033;-65
2022/03/14 05:47:40;;;;;;;14.88;8.60;;;;;;;;;;5047282;28;20254;-64
2022/03/14 05:50:06;;;;;;;15.85;9.88;;;;;;;;;;5045010;28;20103;-63
2022/03/14 05:52:31;;;;;;;15.52;10.63;;;;;;;;;;5044619;28;20388;-63
2022/03/14 05:54:57;;;;;;;18.38;13.23;;;;;;;;;;5050249;28;20496;-64
2022/03/14 05:57:22;;;;;;;22.65;14.70;;;;;;;;;;5065774;28;20102;-64
2022/03/14 05:59:48;;;;;;;20.27;14.27;;;;;;;;;;5065144;28;20025;-65
2022/03/14 06:02:23;;;;;;;19.67;15.32;;;;;;;;;;5063317;28;20085;-64
2022/03/14 06:04:49;;;;;;;25.58;16.85;;;;;;;;;;5066628;28;20017;-65
2022/03/14 06:07:14;;;;;;;23.67;16.75;;;;;;;;;;5063687;28;20082;-65
2022/03/14 06:09:39;;;;;;;22.95;16.42;;;;;;;;;;5062501;28;20433;-65
2022/03/14 06:12:05;;;;;;;24.25;16.48;;;;;;;;;;5062643;28;20035;-64
2022/03/14 06:14:31;;;;;;;21.98;17.88;;;;;;;;;;5064549;28;20025;-64
2022/03/14 06:16:56;;;;;;;24.30;16.85;;;;;;;;;;5063478;28;20119;-64
2022/03/14 06:19:21;;;;;;;20.70;17.42;;;;;;;;;;5064688;28;20479;-65
2022/03/14 06:21:47;;;;;;;21.00;16.73;;;;;;;;;;5066941;28;20028;-64
2022/03/14 06:24:13;;;;;;;21.00;17.08;;;;;;;;;;5063259;28;20059;-64
2022/03/14 06:26:38;;;;;;;21.30;17.58;;;;;;;;;;5065096;28;20020;-65
2022/03/14 06:29:03;;;;;;;22.48;17.42;;;;;;;;;;5064073;28;20390;-64
2022/03/14 06:31:31;;;;;;;21.20;16.92;;;;;;;;;;5066444;28;20497;-64
2022/03/14 06:33:57;;;;;;;20.75;17.98;;;;;;;;;;5064406;28;20474;-64
2022/03/14 06:36:23;;;;;;;19.40;16.67;;;;;;;;;;5046660;28;20029;-65
2022/03/14 06:38:48;;;;;;;19.45;17.42;;;;;;;;;;5061610;28;20491;-65
2022/03/14 06:41:14;;;;;;;18.40;16.48;;;;;;;;;;5061764;28;20896;-64
2022/03/14 06:43:39;;;;;;;18.38;15.73;;;;;;;;;;5047303;28;20017;-65
2022/03/14 06:46:05;;;;;;;21.63;16.52;;;;;;;;;;5066719;28;20066;-65
2022/03/14 06:48:30;;;;;;;23.60;17.23;;;;;;;;;;5064202;28;20017;-65
2022/03/14 06:50:57;;;;;;;17.60;15.63;;;;;;;;;;5067271;28;20518;-64
2022/03/14 06:53:22;;;;;;;18.90;15.82;;;;;;;;;;5062887;28;20028;-64
2022/03/14 06:55:47;;;;;;;17.48;15.60;;;;;;;;;;5065481;28;20021;-64
2022/03/14 06:58:13;;;;;;;18.35;15.10;;;;;;;;;;5062944;28;20025;-64
2022/03/14 07:00:38;;;;;;;18.67;15.55;;;;;;;;;;5066611;28;20047;-63
2022/03/14 07:03:03;;;;;;;18.20;15.77;;;;;;;;;;5064712;28;20013;-64
2022/03/14 07:05:29;;;;;;;21.15;15.73;;;;;;;;;;5066860;28;20107;-64
2022/03/14 07:07:54;;;;;;;22.10;15.32;;;;;;;;;;5063121;28;20046;-64
2022/03/14 07:10:19;;;;;;;18.23;15.38;;;;;;;;;;5061359;28;20047;-65
2022/03/14 07:12:46;;;;;;;16.92;15.20;;;;;;;;;;5066039;28;20111;-64
2022/03/14 07:15:13;;;;;;;17.30;15.38;;;;;;;;;;5061251;28;20067;-64
2022/03/14 07:17:38;;;;;;;17.50;14.35;;;;;;;;;;5065075;28;20028;-65
2022/03/14 07:20:03;;;;;;;18.38;15.70;;;;;;;;;;5062996;28;20556;-64
2022/03/14 07:22:31;;;;;;;17.45;14.93;;;;;;;;;;5062646;28;20020;-65
2022/03/14 07:24:56;;;;;;;16.95;14.77;;;;;;;;;;5063045;28;20023;-65
2022/03/14 07:27:22;;;;;;;19.02;14.68;;;;;;;;;;5064649;28;20028;-65
2022/03/14 07:29:47;;;;;;;19.77;15.15;;;;;;;;;;5064210;28;20090;-64
2022/03/14 07:32:12;;;;;;;21.17;15.02;;;;;;;;;;5063522;28;20025;-64
2022/03/14 07:34:37;;;;;;;21.45;14.80;;;;;;;;;;5065748;28;20032;-64
2022/03/14 07:37:03;;;;;;;18.42;15.68;;;;;;;;;;5064647;28;20031;-64
2022/03/14 07:39:29;;;;;;;20.58;15.27;;;;;;;;;;5019637;28;20056;-65
2022/03/14 07:41:55;;;;;;;20.33;15.68;;;;;;;;;;5044603;28;20013;-65
2022/03/14 07:44:21;;;;;;;19.73;16.40;;;;;;;;;;5037313;28;20139;-65
2022/03/14 07:46:46;;;;;;;19.00;15.63;;;;;;;;;;5045018;28;20107;-65
2022/03/14 07:49:12;;;;;;;21.83;16.00;;;;;;;;;;5041798;28;20080;-64
2022/03/14 07:51:38;;;;;;;18.52;15.00;;;;;;;;;;5043418;28;20060;-64
2022/03/14 07:54:03;;;;;;;21.73;16.08;;;;;;;;;;5043072;28;20029;-64
2022/03/14 07:56:28;;;;;;;18.45;16.40;;;;;;;;;;5041881;28;20083;-64
2022/03/14 07:58:54;;;;;;;24.50;17.55;;;;;;;;;;5042222;28;20114;-65
2022/03/14 08:01:19;;;;;;;22.33;17.60;;;;;;;;;;5042136;28;20029;-66
2022/03/14 08:03:45;;;;;;;21.58;18.08;;;;;;;;;;5043283;28;20032;-65
2022/03/14 08:06:11;;;;;;;23.73;18.60;;;;;;;;;;5043642;28;20028;-64
2022/03/14 08:08:36;;;;;;;24.23;18.95;;;;;;;;;;5047767;28;20475;-64
2022/03/14 08:11:03;;;;;;;27.30;20.60;;;;;;;;;;5062621;28;20022;-65
2022/03/14 08:13:28;;;;;;;27.50;21.30;;;;;;;;;;5058232;28;20043;-64
2022/03/14 08:15:54;;;;;;;28.50;22.73;;;;;;;;;;5063886;28;20016;-65
2022/03/14 08:18:19;;;;;;;29.55;23.67;;;;;;;;;;5066142;28;20036;-65
2022/03/14 08:20:44;;;;;;;34.33;26.92;;;;;;;;;;5066071;28;20047;-65
2022/03/14 08:23:09;;;;;;;39.92;31.15;;;;;;;;;;5059741;28;20276;-64
2022/03/14 08:25:35;;;;;;;42.53;32.58;;;;;;;;;;5045353;28;20029;-65
2022/03/14 08:28:00;;;;;;;46.75;34.35;;;;;;;;;;5067814;28;20031;-65
2022/03/14 08:30:27;;;;;;;49.80;36.80;;;;;;;;;;5062001;28;20154;-64
2022/03/14 08:32:54;;;;;;;40.80;32.22;;;;;;;;;;5062769;28;20736;-64
2022/03/14 08:35:20;;;;;;;38.80;31.88;;;;;;;;;;5061611;28;20050;-64
2022/03/14 08:37:47;;;;;;;37.85;28.02;;;;;;;;;;5063783;28;20028;-64
2022/03/14 08:40:13;;;;;;;31.67;25.20;;;;;;;;;;5059876;28;20016;-64
2022/03/14 08:42:39;;;;;;;31.48;24.58;;;;;;;;;;5062440;28;20025;-64
2022/03/14 08:45:05;;;;;;;32.85;23.70;;;;;;;;;;5062188;28;20032;-64
2022/03/14 08:47:31;;;;;;;29.83;22.15;;;;;;;;;;5062246;28;20224;-64
2022/03/14 08:49:56;;;;;;;26.42;21.48;;;;;;;;;;5063188;28;20028;-64
2022/03/14 08:52:21;;;;;;;28.70;20.27;;;;;;;;;;5060434;28;20036;-63
2022/03/14 08:54:47;;;;;;;25.38;18.05;;;;;;;;;;5055236;28;20021;-64
2022/03/14 08:57:12;;;;;;;26.75;18.77;;;;;;;;;;5039220;28;20103;-64
2022/03/14 08:59:38;;;;;;;21.83;18.80;;;;;;;;;;5042840;28;20028;-65
2022/03/14 09:02:03;;;;;;;22.67;17.75;;;;;;;;;;5060530;28;20031;-64
2022/03/14 09:04:28;;;;;;;20.33;16.88;;;;;;;;;;5059692;28;20155;-64
2022/03/14 09:06:54;;;;;;;26.75;17.08;;;;;;;;;;5061966;28;20043;-64
2022/03/14 09:09:20;;;;;;;27.20;17.08;;;;;;;;;;5058220;28;20036;-64
2022/03/14 09:11:46;;;;;;;21.60;16.88;;;;;;;;;;5043370;28;20036;-64
2022/03/14 09:14:12;;;;;;;21.73;17.08;;;;;;;;;;5060658;28;20012;-64
2022/03/14 09:16:38;;;;;;;26.58;16.90;;;;;;;;;;5042891;28;20036;-65
2022/03/14 09:19:03;;;;;;;22.08;16.17;;;;;;;;;;5062389;28;20025;-65
2022/03/14 09:21:33;;;;;;;20.02;16.13;;;;;;;;;;5060847;28;20107;-65
2022/03/14 09:23:59;;;;;;;20.30;15.20;;;;;;;;;;5045398;28;20075;-65
2022/03/14 09:26:24;;;;;;;23.88;15.60;;;;;;;;;;5039757;28;20021;-65
2022/03/14 09:28:50;;;;;;;20.45;14.07;;;;;;;;;;5037484;28;20021;-65
2022/03/14 09:31:16;;;;;;;18.88;14.82;;;;;;;;;;5022180;28;20493;-65
2022/03/14 09:33:41;;;;;;;16.85;13.80;;;;;;;;;;5042370;28;20039;-65
2022/03/14 09:36:07;;;;;;;18.63;13.52;;;;;;;;;;5042568;28;20024;-64
2022/03/14 09:38:32;;;;;;;19.58;13.98;;;;;;;;;;5038477;28;20361;-65
2022/03/14 09:41:01;;;;;;;19.55;13.77;;;;;;;;;;5040866;28;20734;-65
2022/03/14 09:43:27;;;;;;;19.27;13.32;;;;;;;;;;5035972;28;20033;-66
2022/03/14 09:45:52;;;;;;;18.80;13.13;;;;;;;;;;5040873;28;20458;-67
2022/03/14 09:48:18;;;;;;;22.15;13.02;;;;;;;;;;5039419;28;20048;-67
2022/03/14 09:50:44;;;;;;;17.52;13.80;;;;;;;;;;5042039;28;20072;-66
2022/03/14 09:53:11;;;;;;;19.17;13.85;;;;;;;;;;5039901;28;20056;-66
2022/03/14 09:55:47;;;;;;;17.10;12.90;;;;;;;;;;5040013;28;20032;-66
2022/03/14 09:58:16;;;;;;;16.25;12.25;;;;;;;;;;5038756;28;20770;-66
2022/03/14 10:00:42;;;;;;;17.95;13.00;;;;;;;;;;5041234;28;20039;-67
2022/03/14 10:03:08;;;;;;;17.42;12.93;;;;;;;;;;5040554;28;20017;-66
2022/03/14 10:05:34;;;;;;;19.30;11.77;;;;;;;;;;5041137;28;20308;-66
2022/03/14 10:08:00;;;;;;;15.57;11.63;;;;;;;;;;5038476;28;20013;-66
2022/03/14 10:10:25;;;;;;;16.33;12.68;;;;;;;;;;5039469;28;20299;-66
2022/03/14 10:12:54;;;;;;;19.55;12.95;;;;;;;;;;5044761;28;20067;-66
2022/03/14 10:15:20;;;;;;;17.73;12.25;;;;;;;;;;5025426;28;20075;-65
2022/03/14 10:17:46;;;;;;;18.20;13.20;;;;;;;;;;5027489;28;20139;-66
2022/03/14 10:20:15;;;;;;;16.13;12.73;;;;;;;;;;5045554;28;20025;-66
2022/03/14 10:22:40;;;;;;;19.55;14.52;;;;;;;;;;5040276;28;20389;-65
2022/03/14 10:25:09;;;;;;;23.42;15.77;;;;;;;;;;5044725;28;20025;-65
2022/03/14 10:27:35;;;;;;;20.45;13.40;;;;;;;;;;5044819;28;20505;-66
2022/03/14 10:30:01;;;;;;;18.42;12.73;;;;;;;;;;5046539;28;20421;-66
2022/03/14 10:32:30;;;;;;;20.05;14.00;;;;;;;;;;5043959;28;20399;-67
2022/03/14 10:35:05;;;;;;;18.08;13.55;;;;;;;;;;5044232;28;20048;-67
2022/03/14 10:37:34;;;;;;;19.20;13.60;;;;;;;;;;5041968;28;20029;-66
2022/03/14 10:40:08;;;;;;;16.00;12.32;;;;;;;;;;5043899;28;20108;-67
2022/03/14 10:42:38;;;;;;;16.40;11.95;;;;;;;;;;5043042;28;20027;-67
2022/03/14 10:45:07;;;;;;;16.35;11.18;;;;;;;;;;5044283;28;20100;-66
2022/03/14 10:47:32;;;;;;;14.85;10.45;;;;;;;;;;5043883;28;20532;-65
2022/03/14 10:49:57;;;;;;;17.75;11.40;;;;;;;;;;5047085;28;20112;-66
2022/03/14 10:52:22;;;;;;;21.45;11.77;;;;;;;;;;5050167;28;20063;-65
2022/03/14 10:54:49;;;;;;;16.73;11.25;;;;;;;;;;5048563;28;20066;-65
2022/03/14 10:57:17;;;;;;;17.70;11.73;;;;;;;;;;5045993;28;20165;-65
2022/03/14 10:59:43;;;;;;;17.15;11.60;;;;;;;;;;5060897;28;20532;-66
2022/03/14 11:02:09;;;;;;;15.85;11.05;;;;;;;;;;5065280;28;20040;-67
2022/03/14 11:04:41;;;;;;;21.48;11.15;;;;;;;;;;5063851;28;20233;-65
2022/03/14 11:07:07;;;;;;;21.00;12.20;;;;;;;;;;5065219;28;20078;-65
2022/03/14 11:09:38;;;;;;;16.60;10.63;;;;;;;;;;5070151;28;20116;-66
2022/03/14 11:12:05;;;;;;;20.05;10.55;;;;;;;;;;5067496;28;20055;-66
2022/03/14 11:14:30;;;;;;;15.77;10.60;;;;;;;;;;5063298;28;20158;-67
2022/03/14 11:17:08;;;;;;;19.48;10.60;;;;;;;;;;5066617;28;20020;-66
2022/03/14 11:19:33;;;;;;;15.35;8.88;;;;;;;;;;5056785;28;20064;-66
2022/03/14 11:21:58;;;;;;;13.32;9.13;;;;;;;;;;5042700;28;20041;-67
2022/03/14 11:24:24;;;;;;;19.27;10.02;;;;;;;;;;5041068;28;20340;-67
2022/03/14 11:26:50;;;;;;;18.17;10.30;;;;;;;;;;5027240;28;20041;-68
2022/03/14 11:29:16;;;;;;;20.35;10.23;;;;;;;;;;5041010;28;20055;-66
2022/03/14 11:31:47;;;;;;;21.98;11.57;;;;;;;;;;5043361;28;20055;-66
2022/03/14 11:34:13;;;;;;;23.35;11.98;;;;;;;;;;5042483;28;20136;-67
2022/03/14 11:36:39;;;;;;;20.48;12.65;;;;;;;;;;5041016;28;20052;-66
2022/03/14 11:39:04;;;;;;;18.90;11.63;;;;;;;;;;5041988;28;20029;-65
2022/03/14 11:41:30;;;;;;;21.48;12.20;;;;;;;;;;5039783;28;20395;-67
2022/03/14 11:43:55;;;;;;;18.52;10.85;;;;;;;;;;5041434;28;20387;-66
2022/03/14 11:46:21;;;;;;;16.70;9.60;;;;;;;;;;5045032;28;20012;-67
2022/03/14 11:48:46;;;;;;;16.75;8.85;;;;;;;;;;5041779;28;20033;-66
2022/03/14 11:51:11;;;;;;;18.20;9.93;;;;;;;;;;5044011;28;20044;-67
2022/03/14 11:53:46;;;;;;;25.40;10.48;;;;;;;;;;5039549;28;20041;-66
2022/03/14 11:56:12;;;;;;;21.63;11.25;;;;;;;;;;5042505;28;20057;-66
2022/03/14 11:58:49;;;;;;;20.77;11.50;;;;;;;;;;5038346;28;20044;-67
2022/03/14 12:01:14;;;;;;;29.15;12.88;;;;;;;;;;5042329;28;20025;-67
2022/03/14 12:03:50;;;;;;;24.02;12.48;;;;;;;;;;5041515;28;20107;-66
2022/03/14 12:06:16;;;;;;;21.25;13.65;;;;;;;;;;5026214;28;20104;-66
2022/03/14 12:08:44;;;;;;;20.48;11.15;;;;;;;;;;5039436;28;20174;-66
2022/03/14 12:11:32;;;;;;;18.73;10.05;;;;;;;;;;5042269;28;20103;-67
2022/03/14 12:13:57;;;;;;;21.73;12.57;;;;;;;;;;5041423;28;20099;-66
2022/03/14 12:16:34;;;;;;;20.70;12.23;;;;;;;;;;5042635;28;20096;-66
2022/03/14 12:19:00;;;;;;;20.55;13.13;;;;;;;;;;5043438;28;20507;-65
2022/03/14 12:21:45;;;;;;;20.92;13.40;;;;;;;;;;5043680;28;20064;-65
2022/03/14 12:24:18;;;;;;;18.42;12.27;;;;;;;;;;5041783;28;20009;-65
2022/03/14 12:26:43;;;;;;;16.77;12.00;;;;;;;;;;5040399;28;20429;-65
2022/03/14 12:29:28;;;;;;;21.55;13.23;;;;;;;;;;5040218;28;20124;-65
2022/03/14 12:32:13;;;;;;;23.50;12.55;;;;;;;;;;5042185;28;20444;-65
2022/03/14 12:34:39;;;;;;;17.58;12.18;;;;;;;;;;5029311;28;20048;-65
2022/03/14 12:37:22;;;;;;;21.58;12.55;;;;;;;;;;5041431;28;20305;-65
2022/03/14 12:39:47;;;;;;;19.38;12.82;;;;;;;;;;5039105;28;20105;-66
2022/03/14 12:42:23;;;;;;;18.30;11.63;;;;;;;;;;5042643;28;20523;-66
2022/03/14 12:45:07;;;;;;;24.20;12.70;;;;;;;;;;5039524;28;20454;-65
2022/03/14 12:47:38;;;;;;;19.52;11.35;;;;;;;;;;5040082;28;20024;-65
2022/03/14 12:50:04;;;;;;;17.13;11.82;;;;;;;;;;5042779;28;20480;-64
2022/03/14 12:52:30;;;;;;;16.88;11.05;;;;;;;;;;5040617;28;20447;-66
2022/03/14 12:54:55;;;;;;;17.45;11.38;;;;;;;;;;5040729;28;20396;-65
2022/03/14 12:57:21;;;;;;;18.15;9.77;;;;;;;;;;5043734;28;20029;-66
2022/03/14 12:59:48;;;;;;;20.45;9.32;;;;;;;;;;5040221;28;20295;-64
2022/03/14 13:02:22;;;;;;;14.63;8.50;;;;;;;;;;5043742;28;20100;-66
2022/03/14 13:04:57;;;;;;;16.90;7.82;;;;;;;;;;5042112;28;20021;-66
2022/03/14 13:07:22;;;;;;;18.33;8.90;;;;;;;;;;5040381;28;20294;-65
2022/03/14 13:09:52;;;;;;;18.42;7.60;;;;;;;;;;5038420;28;20029;-65
2022/03/14 13:12:17;;;;;;;17.98;6.90;;;;;;;;;;5043854;28;20510;-65
2022/03/14 13:14:43;;;;;;;21.80;7.70;;;;;;;;;;5040538;28;20025;-65
2022/03/14 13:17:08;;;;;;;16.92;6.85;;;;;;;;;;5043303;28;20463;-66
2022/03/14 13:19:35;;;;;;;15.50;6.28;;;;;;;;;;5041094;28;20043;-66
2022/03/14 13:22:10;;;;;;;22.33;6.90;;;;;;;;;;5042078;28;20048;-65
2022/03/14 13:24:36;;;;;;;19.38;6.72;;;;;;;;;;5042034;28;20110;-65
2022/03/14 13:27:01;;;;;;;19.85;6.10;;;;;;;;;;5042423;28;20021;-64
2022/03/14 13:29:33;;;;;;;20.10;6.22;;;;;;;;;;5039323;28;20497;-65
2022/03/14 13:32:00;;;;;;;18.77;5.85;;;;;;;;;;5041381;28;20021;-65
2022/03/14 13:34:28;;;;;;;14.50;5.75;;;;;;;;;;5061466;28;20435;-66
2022/03/14 13:37:02;;;;;;;15.77;5.57;;;;;;;;;;5061246;28;20654;-66
2022/03/14 13:39:28;;;;;;;16.15;6.18;;;;;;;;;;5040416;28;20028;-65
2022/03/14 13:42:00;;;;;;;20.02;5.60;;;;;;;;;;5060764;28;20625;-65
2022/03/14 13:44:25;;;;;;;20.60;6.00;;;;;;;;;;5057120;28;20024;-65
2022/03/14 13:46:51;;;;;;;17.75;5.05;;;;;;;;;;5063890;28;20347;-66
2022/03/14 13:49:21;;;;;;;18.55;4.80;;;;;;;;;;5066982;28;20416;-66
2022/03/14 13:51:48;;;;;;;20.20;5.40;;;;;;;;;;5063076;28;20165;-66
2022/03/14 13:54:15;;;;;;;22.60;5.25;;;;;;;;;;5063617;28;20021;-65
2022/03/14 13:56:43;;;;;;;13.02;4.78;;;;;;;;;;5045494;28;20153;-65
2022/03/14 13:59:09;;;;;;;14.73;4.63;;;;;;;;;;5047411;28;20025;-66
2022/03/14 14:01:41;;;;;;;17.20;4.72;;;;;;;;;;5046268;28;20025;-65
2022/03/14 14:04:14;;;;;;;14.20;4.30;;;;;;;;;;5047480;28;20021;-66
2022/03/14 14:06:39;;;;;;;;;;;;;;;;;;5027913;28;20146;-65
2022/03/14 14:09:24;;;;;;;14.68;5.22;;;;;;;;;;5045033;28;19919;-65
2022/03/14 14:11:56;;;;;;;18.42;5.38;;;;;;;;;;5044638;28;20028;-65
2022/03/14 14:14:25;;;;;;;15.93;4.50;;;;;;;;;;5044585;28;20025;-65
2022/03/14 14:16:51;;;;;;;15.88;4.68;;;;;;;;;;5045591;28;20016;-65
2022/03/14 14:19:17;;;;;;;13.57;4.05;;;;;;;;;;5045990;28;20024;-65
2022/03/14 14:21:55;;;;;;;13.63;4.90;;;;;;;;;;5044643;28;20029;-68
2022/03/14 14:24:23;;;;;;;10.32;4.10;;;;;;;;;;5043230;28;20017;-66